Time;durP1;ratioP1;P1;durP2;ratioP2;P2;SDS_P1;SDS_P2;PMS_P1;PMS_P2;Temp;Humidity;BMP_temperature;BMP_pressure;BME280_temperature;BME280_humidity;BME280_pressure;Samples;Min_cycle;Max_cycle;Signal;HPM_P1;HPM_P2
2023/09/12 00:01:32;;;;;;;;;5.00;4.00;;;;;24.17;55.96;101009.91;5101126;27;45591;-59
2023/09/12 00:04:00;;;;;;;;;4.67;4.00;;;;;24.17;56.44;101020.78;5097857;27;45314;-59
2023/09/12 00:06:25;;;;;;;;;5.00;5.00;;;;;24.15;55.78;101027.38;5093253;27;45575;-60
2023/09/12 00:08:53;;;;;;;;;4.00;4.00;;;;;24.10;55.66;101025.13;5086167;27;64575;-59
2023/09/12 00:11:19;;;;;;;;;5.33;5.33;;;;;24.07;56.66;101020.03;5099224;27;45577;-60
2023/09/12 00:13:44;;;;;;;;;5.33;5.33;;;;;24.01;56.34;101020.66;5099064;27;46171;-57
2023/09/12 00:16:10;;;;;;;;;5.00;5.00;;;;;23.99;56.75;101022.69;5099206;27;71370;-57
2023/09/12 00:18:39;;;;;;;;;5.00;5.00;;;;;23.98;56.92;101026.44;5097450;27;45339;-57
2023/09/12 00:21:04;;;;;;;;;5.00;5.00;;;;;23.99;56.81;101030.81;5087938;27;45374;-58
2023/09/12 00:23:30;;;;;;;;;7.33;6.00;;;;;23.97;56.82;101024.72;5099529;27;73260;-58
2023/09/12 00:25:56;;;;;;;;;6.33;5.33;;;;;23.93;57.32;101033.16;5087780;27;45397;-58
2023/09/12 00:28:22;;;;;;;;;6.00;6.00;;;;;23.92;57.32;101028.75;5086578;27;45458;-58
2023/09/12 00:30:47;;;;;;;;;8.00;5.33;;;;;23.89;56.87;101026.31;5086179;27;64871;-58
2023/09/12 00:33:12;;;;;;;;;5.67;5.67;;;;;23.89;57.20;101025.47;5080244;27;68918;-59
2023/09/12 00:35:38;;;;;;;;;6.00;6.00;;;;;23.88;56.81;101024.59;5069610;27;70695;-59
2023/09/12 00:38:03;;;;;;;;;5.00;5.00;;;;;23.88;56.98;101030.03;5082415;27;53125;-59
2023/09/12 00:40:28;;;;;;;;;4.00;4.00;;;;;23.89;56.66;101030.91;5061165;28;66383;-59
2023/09/12 00:42:54;;;;;;;;;6.00;6.00;;;;;23.89;57.46;101030.91;5093766;27;46232;-59
2023/09/12 00:45:19;;;;;;;;;9.00;6.00;;;;;23.82;57.82;101030.69;5098658;27;45359;-58
2023/09/12 00:47:45;;;;;;;;;5.67;5.67;;;;;23.79;57.39;101023.72;5098584;27;64521;-58
2023/09/12 00:50:10;;;;;;;;;5.33;5.33;;;;;23.76;57.92;101024.00;5074057;28;65752;-58
2023/09/12 00:52:36;;;;;;;;;10.00;6.67;;;;;23.71;57.86;101020.91;5092463;27;67566;-58
2023/09/12 00:55:02;;;;;;;;;7.67;7.67;;;;;23.66;57.90;101016.97;5057564;28;63699;-59
2023/09/12 00:57:28;;;;;;;;;8.33;7.33;;;;;23.63;58.57;101023.56;5062338;28;45306;-59
2023/09/12 00:59:53;;;;;;;;;8.67;4.67;;;;;23.60;58.39;101021.19;5086823;27;65706;-58
2023/09/12 01:02:20;;;;;;;;;5.00;5.00;;;;;23.56;57.93;101023.34;5097882;27;47784;-58
2023/09/12 01:04:46;;;;;;;;;5.00;5.00;;;;;23.58;58.40;101021.34;5099383;27;45454;-58
2023/09/12 01:07:11;;;;;;;;;7.00;6.67;;;;;23.56;58.51;101017.94;5095042;27;69057;-59
2023/09/12 01:09:37;;;;;;;;;5.00;5.00;;;;;23.55;58.68;101018.09;5099655;27;45371;-58
2023/09/12 01:12:02;;;;;;;;;8.33;6.67;;;;;23.54;58.67;101021.81;5081138;27;47143;-59
2023/09/12 01:14:29;;;;;;;;;8.67;7.00;;;;;23.54;58.80;101019.94;5096162;27;45327;-58
2023/09/12 01:16:54;;;;;;;;;9.00;7.00;;;;;23.49;58.42;101019.53;5087875;27;45438;-59
2023/09/12 01:19:20;;;;;;;;;5.33;5.33;;;;;23.44;58.43;101014.59;5079982;27;45410;-59
2023/09/12 01:22:08;;;;;;;;;10.33;9.33;;;;;23.39;59.34;101008.78;5093045;27;74844;-58
2023/09/12 01:24:59;;;;;;;;;7.33;6.33;;;;;23.40;58.94;101001.47;5073379;27;45434;-58
2023/09/12 01:27:30;;;;;;;;;9.00;7.67;;;;;23.41;59.70;100995.94;5074093;28;45475;-58
2023/09/12 01:30:03;;;;;;;;;5.33;5.33;;;;;23.40;59.21;100991.50;5061923;28;45556;-58
2023/09/12 01:32:29;;;;;;;;;8.00;8.00;;;;;23.45;59.59;100999.16;5080268;27;45469;-58
2023/09/12 01:34:54;;;;;;;;;8.00;7.00;;;;;23.46;59.76;100999.00;5089031;27;45362;-59
2023/09/12 01:37:20;;;;;;;;;8.00;8.00;;;;;23.45;59.45;100999.16;5060809;28;69381;-58
2023/09/12 01:39:45;;;;;;;;;8.00;8.00;;;;;23.42;59.93;101004.91;5092310;27;65329;-58
2023/09/12 01:42:14;;;;;;;;;6.67;6.67;;;;;23.37;60.00;101018.09;5079237;27;75410;-58
2023/09/12 01:44:41;;;;;;;;;10.00;8.00;;;;;23.33;60.18;101022.13;5078865;27;45419;-58
2023/09/12 01:47:06;;;;;;;;;8.33;6.00;;;;;23.30;60.12;101026.00;5068691;27;45489;-58
2023/09/12 01:49:32;;;;;;;;;8.67;8.00;;;;;23.28;60.32;101019.88;5079731;27;45531;-58
2023/09/12 01:52:01;;;;;;;;;9.67;7.67;;;;;23.24;60.24;101011.19;5081031;27;46087;-58
2023/09/12 01:54:27;;;;;;;;;14.00;8.33;;;;;23.19;60.48;101016.22;5095569;27;45335;-58
2023/09/12 01:56:57;;;;;;;;;9.00;5.33;;;;;23.17;60.21;101020.13;5098365;27;66284;-59
2023/09/12 01:59:23;;;;;;;;;10.33;10.33;;;;;23.15;60.76;101019.41;5080667;27;45593;-59
2023/09/12 02:01:48;;;;;;;;;11.33;9.00;;;;;23.12;61.36;101015.94;5097709;27;46323;-58
2023/09/12 02:04:14;;;;;;;;;2.33;2.33;;;;;23.09;60.52;101010.84;5095282;27;70808;-59
2023/09/12 02:06:39;;;;;;;;;10.00;10.00;;;;;23.06;61.04;101007.56;5087713;27;67093;-58
2023/09/12 02:09:04;;;;;;;;;9.33;8.00;;;;;23.02;61.62;101030.59;5078586;27;45352;-59
2023/09/12 02:11:30;;;;;;;;;10.00;9.00;;;;;23.00;61.63;101022.63;5087333;27;68341;-59
2023/09/12 02:13:55;;;;;;;;;8.00;8.00;;;;;23.02;61.86;101023.28;5098904;27;45279;-59
2023/09/12 02:16:20;;;;;;;;;9.67;7.67;;;;;23.01;61.51;101027.03;5072180;28;69796;-59
2023/09/12 02:18:46;;;;;;;;;9.00;9.00;;;;;23.01;61.18;101023.44;5091174;27;63911;-59
2023/09/12 02:21:11;;;;;;;;;10.00;8.67;;;;;22.98;61.94;101019.19;5092807;27;74241;-59
2023/09/12 02:23:36;;;;;;;;;6.00;6.00;;;;;22.98;61.77;101018.34;5093415;27;65742;-59
2023/09/12 02:26:02;;;;;;;;;6.67;5.33;;;;;23.01;62.34;101018.91;5085745;27;67260;-59
2023/09/12 02:28:28;;;;;;;;;10.33;9.00;;;;;23.06;61.72;101018.44;5098651;27;45425;-59
2023/09/12 02:30:53;;;;;;;;;5.00;5.00;;;;;23.03;61.70;101022.28;5091138;27;46137;-59
2023/09/12 02:33:18;;;;;;;;;7.00;7.00;;;;;23.03;61.89;101022.28;5097750;27;69106;-59
2023/09/12 02:35:44;;;;;;;;;7.00;7.00;;;;;23.10;62.50;101014.41;5081859;27;67375;-59
2023/09/12 02:38:09;;;;;;;;;6.67;6.67;;;;;23.14;62.06;101007.72;5096035;27;51582;-58
2023/09/12 02:40:34;;;;;;;;;8.33;8.33;;;;;23.22;62.73;101001.47;5089726;27;52493;-58
2023/09/12 02:43:00;;;;;;;;;9.00;7.67;;;;;23.23;61.75;101012.22;5099631;27;45447;-59
2023/09/12 02:45:25;;;;;;;;;8.33;8.33;;;;;23.26;61.82;101013.75;5081494;27;57313;-59
2023/09/12 02:47:50;;;;;;;;;9.67;9.33;;;;;23.23;61.91;101014.91;5096124;27;50133;-59
2023/09/12 02:50:16;;;;;;;;;8.67;7.33;;;;;23.19;61.75;101021.63;5088290;27;71354;-59
2023/09/12 02:52:41;;;;;;;;;12.67;9.67;;;;;23.16;61.77;101016.53;5100275;27;56158;-59
2023/09/12 02:55:06;;;;;;;;;10.33;10.33;;;;;23.17;61.83;101014.69;5081757;27;50484;-59
2023/09/12 02:57:32;;;;;;;;;10.33;9.33;;;;;23.16;62.21;101002.13;5082173;27;45277;-59
2023/09/12 02:59:58;;;;;;;;;7.67;7.67;;;;;23.08;61.94;101000.16;5088919;27;66003;-59
2023/09/12 03:02:23;;;;;;;;;8.67;5.67;;;;;23.07;62.00;100998.44;5092508;27;45388;-59
2023/09/12 03:04:48;;;;;;;;;9.50;9.00;;;;;23.09;62.00;100999.16;5083288;27;68145;-59
2023/09/12 03:07:14;;;;;;;;;12.33;12.33;;;;;23.08;61.91;101000.16;5099208;27;70422;-59
2023/09/12 03:09:39;;;;;;;;;6.00;6.00;;;;;23.08;62.56;100997.44;5099203;27;60187;-59
2023/09/12 03:12:05;;;;;;;;;13.33;9.33;;;;;23.08;62.42;100994.72;5099013;27;70280;-59
2023/09/12 03:14:30;;;;;;;;;15.00;9.00;;;;;23.03;62.42;101005.19;5099443;27;45369;-59
2023/09/12 03:16:55;;;;;;;;;7.00;7.00;;;;;22.93;63.22;101002.53;5089783;27;66922;-59
2023/09/12 03:19:21;;;;;;;;;7.33;7.33;;;;;22.86;63.53;100998.72;5088035;27;45958;-59
2023/09/12 03:21:46;;;;;;;;;9.33;9.33;;;;;22.79;63.46;101003.91;5094544;27;45711;-59
2023/09/12 03:24:12;;;;;;;;;11.33;10.33;;;;;22.75;62.63;101013.31;5075894;28;67064;-59
2023/09/12 03:26:37;;;;;;;;;10.00;10.00;;;;;22.69;63.73;101019.38;5096086;27;49126;-59
2023/09/12 03:29:04;;;;;;;;;8.67;8.67;;;;;22.60;63.93;101015.69;5087454;27;47631;-59
2023/09/12 03:31:29;;;;;;;;;10.33;7.67;;;;;22.54;64.79;101010.88;5081077;27;45494;-58
2023/09/12 03:33:54;;;;;;;;;8.33;7.67;;;;;22.50;64.70;101013.03;5082525;27;45463;-58
2023/09/12 03:36:20;;;;;;;;;9.33;8.00;;;;;22.47;63.99;101018.75;5087639;27;67550;-59
2023/09/12 03:38:45;;;;;;;;;10.67;9.00;;;;;22.42;64.71;101016.50;5085541;27;66183;-59
2023/09/12 03:41:11;;;;;;;;;9.00;8.33;;;;;22.40;64.85;101025.78;5081856;27;57769;-58
2023/09/12 03:43:36;;;;;;;;;9.00;9.00;;;;;22.38;64.89;101030.50;5097350;27;45434;-57
2023/09/12 03:46:03;;;;;;;;;9.67;8.67;;;;;22.35;64.82;101028.91;5100590;27;45539;-59
2023/09/12 03:48:30;;;;;;;;;8.67;8.33;;;;;22.29;65.20;101030.34;5100900;27;46462;-58
2023/09/12 03:50:56;;;;;;;;;14.33;8.67;;;;;22.27;64.74;101028.78;5099426;27;45461;-59
2023/09/12 03:53:21;;;;;;;;;7.00;7.00;;;;;22.24;65.12;101026.38;5099457;27;45450;-58
2023/09/12 03:55:46;;;;;;;;;8.67;8.00;;;;;22.19;64.80;101031.38;5097146;27;65676;-58
2023/09/12 03:58:12;;;;;;;;;10.00;8.00;;;;;22.14;64.98;101027.25;5082524;27;46846;-58
2023/09/12 04:00:37;;;;;;;;;10.67;10.00;;;;;22.09;66.83;101029.53;5101405;27;45379;-59
2023/09/12 04:03:02;;;;;;;;;10.67;9.00;;;;;22.10;66.16;101036.66;5097412;27;65095;-59
2023/09/12 04:05:28;;;;;;;;;10.67;8.00;;;;;22.12;65.82;101039.22;5100329;27;45415;-58
2023/09/12 04:07:53;;;;;;;;;6.00;5.33;;;;;22.12;66.96;101040.09;5080064;27;75108;-61
2023/09/12 04:10:20;;;;;;;;;11.33;8.67;;;;;22.09;66.32;101043.09;5079178;27;71507;-59
2023/09/12 04:12:45;;;;;;;;;10.67;8.33;;;;;22.05;66.41;101049.81;5093890;27;45485;-58
2023/09/12 04:15:11;;;;;;;;;10.67;7.00;;;;;22.02;65.84;101052.81;5098595;27;45446;-60
2023/09/12 04:17:36;;;;;;;;;12.00;9.67;;;;;22.04;65.08;101058.91;5099513;27;75649;-59
2023/09/12 04:20:01;;;;;;;;;8.00;8.00;;;;;22.06;65.65;101053.34;5086095;27;72228;-58
2023/09/12 04:22:28;;;;;;;;;6.67;6.67;;;;;22.08;64.99;101052.19;5096400;27;45347;-58
2023/09/12 04:24:53;;;;;;;;;9.00;7.00;;;;;22.11;65.98;101045.63;5092867;27;45535;-58
2023/09/12 04:27:19;;;;;;;;;6.67;5.33;;;;;22.14;65.58;101039.94;5081886;27;46057;-58
2023/09/12 04:29:44;;;;;;;;;8.33;7.67;;;;;22.22;65.46;101031.94;5090593;27;72377;-58
2023/09/12 04:32:10;;;;;;;;;10.67;10.67;;;;;22.27;65.46;101045.91;5085535;27;66394;-58
2023/09/12 04:34:35;;;;;;;;;10.00;9.33;;;;;22.28;64.93;101041.31;5086527;27;45959;-58
2023/09/12 04:37:02;;;;;;;;;9.00;7.67;;;;;22.25;65.59;101047.91;5085695;27;45979;-58
2023/09/12 04:39:28;;;;;;;;;9.00;8.00;;;;;22.25;65.73;101055.16;5099897;27;45408;-58
2023/09/12 04:41:53;;;;;;;;;8.00;7.33;;;;;22.23;65.01;101047.19;5099646;27;45509;-58
2023/09/12 04:44:18;;;;;;;;;10.33;10.33;;;;;22.23;65.79;101046.34;5098364;27;69529;-58
2023/09/12 04:46:43;;;;;;;;;13.67;11.33;;;;;22.23;65.52;101052.59;5097821;27;46165;-58
2023/09/12 04:49:09;;;;;;;;;11.67;11.67;;;;;22.23;64.96;101052.59;5099163;27;66008;-59
2023/09/12 04:51:34;;;;;;;;;12.50;10.00;;;;;22.20;65.89;101058.34;5085636;27;45482;-59
2023/09/12 04:54:00;;;;;;;;;12.00;10.67;;;;;22.16;65.33;101065.03;5098911;27;45604;-58
2023/09/12 04:56:25;;;;;;;;;10.33;9.33;;;;;22.13;66.21;101070.75;5064226;27;47544;-59
2023/09/12 04:58:50;;;;;;;;;11.00;11.00;;;;;22.10;66.14;101074.59;5099364;27;45792;-59
2023/09/12 05:01:16;;;;;;;;;11.33;9.67;;;;;22.06;65.65;101070.47;5083446;27;52362;-59
2023/09/12 05:03:42;;;;;;;;;11.33;9.67;;;;;22.01;65.87;101064.63;5084722;27;45754;-59
2023/09/12 05:06:07;;;;;;;;;9.67;8.33;;;;;21.98;65.10;101065.78;5092512;27;45684;-59
2023/09/12 05:08:33;;;;;;;;;13.00;11.00;;;;;21.96;65.69;101062.34;5081263;27;69887;-59
2023/09/12 05:10:58;;;;;;;;;13.33;11.33;;;;;21.92;65.67;101060.94;5096199;27;45712;-58
2023/09/12 05:13:23;;;;;;;;;12.67;9.33;;;;;21.90;66.52;101062.94;5092718;27;67051;-59
2023/09/12 05:15:49;;;;;;;;;9.00;8.00;;;;;21.91;66.11;101063.78;5094370;27;59018;-58
2023/09/12 05:18:14;;;;;;;;;11.00;8.33;;;;;21.89;66.56;101057.66;5087791;27;55061;-58
2023/09/12 05:20:39;;;;;;;;;8.33;8.33;;;;;21.90;66.22;101062.06;5090848;27;46150;-58
2023/09/12 05:23:05;;;;;;;;;9.33;9.33;;;;;21.90;66.51;101068.38;5085630;27;47676;-58
2023/09/12 05:25:30;;;;;;;;;10.00;9.67;;;;;21.88;64.87;101077.63;5083696;27;54080;-58
2023/09/12 05:27:56;;;;;;;;;8.00;8.00;;;;;21.84;66.04;101081.59;5084550;27;69599;-58
2023/09/12 05:30:21;;;;;;;;;10.00;9.00;;;;;21.80;67.22;101075.63;5083347;27;45584;-58
2023/09/12 05:32:46;;;;;;;;;10.67;10.67;;;;;21.80;67.51;101081.91;5092099;27;45315;-58
2023/09/12 05:35:12;;;;;;;;;14.33;13.00;;;;;21.80;66.43;101078.34;5081817;27;74520;-59
2023/09/12 05:37:37;;;;;;;;;14.00;12.67;;;;;21.77;66.37;101071.38;5069897;27;65156;-59
2023/09/12 05:40:03;;;;;;;;;13.67;12.00;;;;;21.74;66.98;101065.38;5098246;27;68370;-59
2023/09/12 05:42:29;;;;;;;;;15.33;8.33;;;;;21.74;67.35;101063.50;5096286;27;45371;-59
2023/09/12 05:44:54;;;;;;;;;12.67;10.00;;;;;21.77;66.03;101074.06;5085048;27;46121;-59
2023/09/12 05:47:20;;;;;;;;;12.33;10.33;;;;;21.79;66.83;101063.94;5088799;27;56142;-59
2023/09/12 05:49:46;;;;;;;;;10.67;8.67;;;;;21.83;66.85;101069.94;5079078;27;45377;-58
2023/09/12 05:52:11;;;;;;;;;11.33;10.00;;;;;21.90;66.90;101072.91;5077686;28;65346;-59
2023/09/12 05:54:37;;;;;;;;;11.33;10.00;;;;;21.94;66.31;101072.50;5088475;27;46372;-59
2023/09/12 05:57:02;;;;;;;;;9.00;8.67;;;;;21.98;65.75;101071.19;5087733;27;45341;-59
2023/09/12 05:59:28;;;;;;;;;10.00;9.00;;;;;22.01;66.64;101078.16;5084971;27;45281;-59
2023/09/12 06:01:53;;;;;;;;;8.00;8.00;;;;;22.05;66.47;101084.16;5098351;27;45287;-58
2023/09/12 06:04:18;;;;;;;;;9.33;8.67;;;;;22.16;66.05;101086.69;5083008;27;73050;-58
2023/09/12 06:06:45;;;;;;;;;10.67;7.33;;;;;22.35;65.77;101090.38;5088474;27;65432;-58
2023/09/12 06:09:10;;;;;;;;;7.33;5.33;;;;;22.53;64.74;101087.75;5092847;27;45350;-60
2023/09/12 06:11:36;;;;;;;;;12.67;11.33;;;;;22.67;64.37;101084.59;5088049;27;45378;-60
2023/09/12 06:14:01;;;;;;;;;6.67;6.00;;;;;22.78;63.83;101099.81;5082487;27;45862;-61
2023/09/12 06:16:26;;;;;;;;;10.67;9.00;;;;;22.88;63.57;101100.63;5088036;27;69317;-56
2023/09/12 06:18:53;;;;;;;;;22.67;18.00;;;;;22.96;63.25;101102.56;5081853;27;45411;-57
2023/09/12 06:21:19;;;;;;;;;25.67;25.00;;;;;22.99;62.90;101098.72;5089661;27;45515;-57
2023/09/12 06:23:44;;;;;;;;;15.67;13.67;;;;;22.97;62.89;101090.69;5093568;27;45418;-57
2023/09/12 06:26:09;;;;;;;;;9.33;7.67;;;;;22.93;63.04;101084.75;5093241;27;45440;-57
2023/09/12 06:28:35;;;;;;;;;19.33;19.00;;;;;22.92;62.69;101087.63;5084192;27;65859;-57
2023/09/12 06:31:00;;;;;;;;;30.33;27.33;;;;;22.88;63.18;101083.47;5086095;27;63587;-57
2023/09/12 06:33:26;;;;;;;;;19.00;18.00;;;;;22.88;62.75;101089.78;5082454;27;46853;-57
2023/09/12 06:35:52;;;;;;;;;9.67;9.67;;;;;22.91;63.05;101086.75;5086810;27;45365;-56
2023/09/12 06:38:18;;;;;;;;;12.33;11.00;;;;;22.95;62.59;101084.59;5083491;27;45424;-57
2023/09/12 06:40:44;;;;;;;;;9.00;7.00;;;;;22.98;62.71;101092.41;5082455;27;45517;-57
2023/09/12 06:43:09;;;;;;;;;10.67;10.33;;;;;23.02;62.74;101080.25;5088326;27;66204;-58
2023/09/12 06:45:37;;;;;;;;;11.33;10.00;;;;;23.03;62.62;101086.56;5078866;27;63534;-58
2023/09/12 06:48:03;;;;;;;;;12.00;11.67;;;;;23.07;62.53;101093.38;5098293;27;45511;-58
2023/09/12 06:50:28;;;;;;;;;13.00;11.00;;;;;23.10;62.26;101091.22;5083127;27;45335;-57
2023/09/12 06:52:54;;;;;;;;;10.00;7.00;;;;;23.17;62.37;101082.50;5083196;27;60930;-57
2023/09/12 06:55:19;;;;;;;;;13.00;10.67;;;;;23.25;61.67;101083.44;5089419;27;45436;-58
2023/09/12 06:57:45;;;;;;;;;10.33;9.00;;;;;23.27;61.71;101086.00;5083417;27;65043;-57
2023/09/12 07:00:11;;;;;;;;;11.33;9.67;;;;;23.21;61.26;101084.75;5086197;27;45615;-57
2023/09/12 07:02:37;;;;;;;;;11.00;11.00;;;;;23.17;61.82;101098.78;5084647;27;46037;-58
2023/09/12 07:05:03;;;;;;;;;11.00;10.00;;;;;23.11;61.57;101100.19;5085136;27;45613;-58
2023/09/12 07:07:29;;;;;;;;;8.67;7.33;;;;;23.11;61.49;101108.34;5087086;27;45864;-57
2023/09/12 07:09:54;;;;;;;;;9.00;7.33;;;;;23.10;61.37;101098.47;5069382;27;45720;-59
2023/09/12 07:12:19;;;;;;;;;9.67;8.33;;;;;23.09;61.80;101102.22;5081679;27;45497;-58
2023/09/12 07:14:45;;;;;;;;;11.67;9.33;;;;;23.10;61.32;101106.63;5088737;27;47777;-58
2023/09/12 07:17:10;;;;;;;;;8.67;8.67;;;;;23.10;61.39;101110.22;5087059;27;45723;-58
2023/09/12 07:19:36;;;;;;;;;13.33;10.33;;;;;23.11;61.76;101116.47;5086156;27;45394;-58
2023/09/12 07:22:01;;;;;;;;;9.00;8.33;;;;;23.12;61.19;101116.31;5088565;27;53820;-59
2023/09/12 07:24:27;;;;;;;;;13.33;9.67;;;;;23.13;61.73;101111.75;5093875;27;45478;-56
2023/09/12 07:26:52;;;;;;;;;9.33;9.33;;;;;23.03;61.12;101111.81;5087133;27;65838;-58
2023/09/12 07:29:18;;;;;;;;;12.00;10.33;;;;;22.92;62.20;101112.03;5088547;27;45410;-57
2023/09/12 07:31:43;;;;;;;;;12.00;11.33;;;;;22.83;61.86;101112.91;5089787;27;74809;-56
2023/09/12 07:34:10;;;;;;;;;15.00;13.33;;;;;22.77;62.19;101112.47;5093792;27;45889;-58
2023/09/12 07:36:36;;;;;;;;;4.67;4.67;;;;;22.77;62.23;101117.06;5094080;27;45749;-57
2023/09/12 07:39:02;;;;;;;;;11.00;11.00;;;;;22.73;62.06;101123.78;5100986;27;45584;-58
2023/09/12 07:41:27;;;;;;;;;10.67;10.67;;;;;22.67;62.22;101111.69;5103840;27;46197;-57
2023/09/12 07:43:53;;;;;;;;;8.33;8.33;;;;;22.66;62.18;101109.09;5100886;27;53719;-58
2023/09/12 07:46:18;;;;;;;;;10.33;9.33;;;;;22.67;62.65;101105.41;5099812;27;64231;-58
2023/09/12 07:48:43;;;;;;;;;10.33;9.67;;;;;22.71;62.47;101110.41;5063414;28;45559;-58
2023/09/12 07:51:17;;;;;;;;;9.33;8.00;;;;;22.75;62.40;101103.66;5080261;27;45542;-57
2023/09/12 07:53:43;;;;;;;;;9.00;9.00;;;;;22.79;62.08;101113.19;5080882;27;45424;-58
2023/09/12 07:56:10;;;;;;;;;12.33;10.33;;;;;22.79;61.80;101115.91;5081662;27;45229;-57
2023/09/12 07:58:35;;;;;;;;;11.33;11.00;;;;;22.74;62.18;101120.94;5074249;28;45449;-58
2023/09/12 08:01:08;;;;;;;;;11.00;11.00;;;;;22.72;62.16;101125.66;5079801;27;73650;-57
2023/09/12 08:03:34;;;;;;;;;14.00;10.00;;;;;22.78;62.29;101116.91;5081198;28;45364;-58
2023/09/12 08:06:00;;;;;;;;;9.67;8.67;;;;;22.85;62.16;101110.91;5085660;27;45220;-57
2023/09/12 08:08:25;;;;;;;;;13.00;9.33;;;;;22.93;61.98;101109.16;5100610;27;45283;-57
2023/09/12 08:10:51;;;;;;;;;14.00;11.00;;;;;22.95;61.81;101117.97;5067457;28;47380;-58
2023/09/12 08:13:16;;;;;;;;;9.67;9.67;;;;;22.93;61.28;101124.56;5079924;27;67926;-58
2023/09/12 08:15:41;;;;;;;;;10.33;10.33;;;;;22.89;61.82;101121.31;5095286;27;68412;-57
2023/09/12 08:18:07;;;;;;;;;10.00;10.00;;;;;22.85;61.90;101122.59;5100429;27;61115;-57
2023/09/12 08:20:32;;;;;;;;;9.67;7.33;;;;;22.82;61.66;101122.06;5098406;27;61830;-58
2023/09/12 08:22:57;;;;;;;;;7.00;7.00;;;;;22.77;61.87;101130.63;5091967;27;45319;-57
2023/09/12 08:25:24;;;;;;;;;14.00;10.33;;;;;22.73;61.92;101137.34;5085512;27;66877;-58
2023/09/12 08:27:49;;;;;;;;;8.00;8.00;;;;;22.70;62.32;101133.06;5082577;27;45406;-58
2023/09/12 08:30:15;;;;;;;;;9.00;8.33;;;;;22.68;62.57;101136.94;5092020;27;46140;-57
2023/09/12 08:32:43;;;;;;;;;8.67;7.00;;;;;22.62;62.17;101133.81;5067348;28;45937;-58
2023/09/12 08:35:14;;;;;;;;;8.00;7.00;;;;;22.62;62.69;101132.97;5090814;27;45197;-58
2023/09/12 08:37:41;;;;;;;;;11.67;9.33;;;;;22.59;62.42;101133.25;5084126;27;45394;-58
2023/09/12 08:40:08;;;;;;;;;9.00;9.00;;;;;22.55;62.85;101131.84;5083662;27;45269;-58
2023/09/12 08:42:40;;;;;;;;;9.67;8.00;;;;;22.54;63.01;101139.13;5100459;27;45291;-57
2023/09/12 08:45:08;;;;;;;;;9.67;8.33;;;;;22.62;63.08;101130.25;5091941;27;45355;-58
2023/09/12 08:47:35;;;;;;;;;13.00;11.00;;;;;22.69;62.72;101134.06;5100555;27;45367;-57
2023/09/12 08:50:02;;;;;;;;;12.67;10.33;;;;;22.78;63.04;101125.03;5098133;27;54516;-57
2023/09/12 08:52:28;;;;;;;;;9.00;8.67;;;;;22.86;62.98;101134.31;5074358;27;45506;-58
2023/09/12 08:54:53;;;;;;;;;9.33;9.33;;;;;22.91;63.00;101135.56;5096024;27;66908;-58
2023/09/12 08:57:18;;;;;;;;;8.00;7.00;;;;;22.99;63.44;101133.97;5091054;27;62743;-57
2023/09/12 08:59:45;;;;;;;;;12.33;8.00;;;;;22.99;63.39;101128.53;5096047;27;75464;-57
2023/09/12 09:02:11;;;;;;;;;9.00;9.00;;;;;22.98;63.65;101129.53;5069963;27;45747;-58
2023/09/12 09:04:38;;;;;;;;;9.67;9.67;;;;;22.95;63.03;101127.97;5079171;27;45652;-57
2023/09/12 09:07:04;;;;;;;;;10.33;8.67;;;;;22.92;63.20;101128.28;5090873;27;45534;-57
2023/09/12 09:09:30;;;;;;;;;9.00;8.00;;;;;22.86;63.21;101129.72;5071085;27;46352;-58
2023/09/12 09:11:55;;;;;;;;;8.67;7.00;;;;;22.78;63.25;101127.75;5091400;27;45481;-57
2023/09/12 09:14:21;;;;;;;;;6.00;6.00;;;;;22.71;62.97;101133.91;5083500;27;66926;-58
2023/09/12 09:16:46;;;;;;;;;6.00;6.00;;;;;22.59;63.11;101136.84;5091288;27;45648;-58
2023/09/12 09:19:11;;;;;;;;;6.00;6.00;;;;;22.50;63.66;101137.69;5093075;27;46076;-58
2023/09/12 09:21:40;;;;;;;;;6.00;6.00;;;;;22.45;63.94;101134.59;5083255;27;45436;-57
2023/09/12 09:24:10;;;;;;;;;9.00;7.33;;;;;22.39;64.11;101144.13;5089037;27;45433;-57
2023/09/12 09:26:46;;;;;;;;;7.00;7.00;;;;;22.34;63.84;101145.56;5070077;27;45566;-57
2023/09/12 09:29:19;;;;;;;;;7.00;7.00;;;;;22.29;64.55;101133.31;5092908;27;46178;-58
2023/09/12 09:31:46;;;;;;;;;5.67;5.67;;;;;22.28;63.92;101131.59;5084426;27;45299;-57
2023/09/12 09:34:16;;;;;;;;;8.00;8.00;;;;;22.24;64.79;101127.47;5088785;27;45384;-57
2023/09/12 09:36:52;;;;;;;;;9.67;9.00;;;;;22.20;65.69;101134.19;5093106;27;45417;-57
2023/09/12 09:39:23;;;;;;;;;9.67;8.33;;;;;22.14;67.05;101134.75;5095272;27;46934;-58
2023/09/12 09:41:53;;;;;;;;;9.67;8.33;;;;;22.07;67.24;101134.47;5094973;27;45294;-57
2023/09/12 09:44:21;;;;;;;;;10.67;9.00;;;;;22.02;67.88;101130.47;5091170;27;45334;-58
2023/09/12 09:46:51;;;;;;;;;9.67;9.33;;;;;21.97;68.08;101125.50;5093255;27;45318;-57
2023/09/12 09:49:19;;;;;;;;;9.33;9.33;;;;;21.94;68.88;101137.47;5087900;27;46984;-57
2023/09/12 09:51:44;;;;;;;;;7.33;7.33;;;;;21.93;68.90;101145.75;5094375;27;45348;-57
2023/09/12 09:54:11;;;;;;;;;6.33;6.00;;;;;21.90;69.28;101144.19;5085079;27;67527;-58
2023/09/12 09:56:50;;;;;;;;;8.33;8.33;;;;;21.90;70.64;101162.25;5090157;27;45323;-57
2023/09/12 09:59:18;;;;;;;;;11.00;9.00;;;;;21.87;70.86;101166.09;5097210;27;46043;-57
2023/09/12 10:01:45;;;;;;;;;8.00;8.00;;;;;21.79;78.00;101180.34;5092145;27;45443;-57
2023/09/12 10:04:10;;;;;;;;;9.67;9.00;;;;;21.62;78.86;101195.41;5090624;27;45295;-57
2023/09/12 10:06:37;;;;;;;;;10.00;10.00;;;;;21.47;79.17;101208.47;5096520;27;45260;-57
2023/09/12 10:09:06;;;;;;;;;12.67;12.00;;;;;21.29;82.14;101213.69;5090047;27;46175;-57
2023/09/12 10:11:35;;;;;;;;;9.67;9.67;;;;;21.10;81.19;101224.41;5076411;27;45506;-58
2023/09/12 10:14:04;;;;;;;;;11.33;11.33;;;;;20.92;85.50;101227.72;5079262;27;45648;-58
2023/09/12 10:16:34;;;;;;;;;10.67;10.67;;;;;20.79;87.97;101229.78;5067024;28;45540;-58
2023/09/12 10:19:21;;;;;;;;;13.33;11.67;;;;;20.65;87.17;101222.88;5078505;27;47465;-58
2023/09/12 10:21:50;;;;;;;;;12.00;11.00;;;;;20.49;91.31;101217.91;5098551;27;45417;-58
2023/09/12 10:24:16;;;;;;;;;11.00;10.33;;;;;20.37;99.91;101217.13;5078248;27;45421;-58
2023/09/12 10:26:45;;;;;;;;;13.67;12.67;;;;;20.28;100.00;101213.34;5088833;27;45467;-59
2023/09/12 10:29:15;;;;;;;;;13.33;13.33;;;;;20.19;100.00;101214.13;5090774;27;46234;-59
2023/09/12 10:31:40;;;;;;;;;16.00;12.00;;;;;20.20;100.00;101215.00;5089745;27;45348;-59
2023/09/12 10:34:09;;;;;;;;;18.00;12.33;;;;;20.15;100.00;101205.44;5092092;27;45379;-59
2023/09/12 10:36:38;;;;;;;;;11.00;11.00;;;;;20.11;100.00;101203.97;5057968;27;45279;-59
2023/09/12 10:39:05;;;;;;;;;13.67;11.67;;;;;20.07;100.00;101207.91;5091943;27;46317;-59
2023/09/12 10:41:30;;;;;;;;;10.67;8.67;;;;;20.05;100.00;101198.22;5085367;27;45824;-59
2023/09/12 10:43:57;;;;;;;;;10.00;8.00;;;;;20.04;100.00;101193.81;5066540;27;61350;-59
2023/09/12 10:46:23;;;;;;;;;9.33;7.33;;;;;20.03;100.00;101194.81;5089703;27;45373;-59
2023/09/12 10:48:49;;;;;;;;;10.00;9.33;;;;;20.00;100.00;101188.69;5095047;27;46220;-59
2023/09/12 10:51:16;;;;;;;;;12.00;10.33;;;;;19.97;100.00;101193.47;5095415;27;45332;-59
2023/09/12 10:53:48;;;;;;;;;15.33;10.33;;;;;19.94;100.00;101191.03;5097289;27;45418;-59
2023/09/12 10:56:16;;;;;;;;;12.00;11.00;;;;;19.89;100.00;101191.41;5077728;28;45622;-58
2023/09/12 10:59:06;;;;;;;;;9.33;9.00;;;;;19.87;100.00;101184.44;5082194;28;46230;-59
2023/09/12 11:01:36;;;;;;;;;13.33;10.67;;;;;19.87;100.00;101173.63;5074692;27;45338;-58
2023/09/12 11:04:20;;;;;;;;;13.00;9.67;;;;;19.87;100.00;101182.59;5084816;27;45557;-59
2023/09/12 11:06:50;;;;;;;;;14.67;12.00;;;;;19.86;100.00;101182.75;5093076;27;45233;-59
2023/09/12 11:09:22;;;;;;;;;9.67;9.67;;;;;19.84;100.00;101188.25;5097594;27;45384;-59
2023/09/12 11:11:53;;;;;;;;;12.67;11.33;;;;;19.85;100.00;101191.81;5098314;27;45427;-59
2023/09/12 11:14:19;;;;;;;;;11.00;11.00;;;;;19.83;100.00;101179.28;5093025;27;45262;-59
2023/09/12 11:17:06;;;;;;;;;9.33;9.33;;;;;19.84;100.00;101182.84;5082056;27;45455;-59